createdAt,value
2018-07-07T00:03:35.731Z,14.80
2018-07-07T00:08:38.395Z,14.80
2018-07-07T00:13:41.109Z,14.80
2018-07-07T00:18:43.866Z,14.80
2018-07-07T00:23:46.578Z,14.70
2018-07-07T00:28:49.223Z,14.70
2018-07-07T00:33:51.873Z,14.60
2018-07-07T00:38:54.490Z,14.50
2018-07-07T00:43:57.102Z,14.50
2018-07-07T00:49:01.947Z,14.50
2018-07-07T00:54:04.888Z,14.50
2018-07-07T00:59:07.562Z,14.50
2018-07-07T01:04:10.295Z,14.40
2018-07-07T01:09:13.146Z,14.40
2018-07-07T01:14:15.732Z,14.40
2018-07-07T01:19:18.450Z,14.30
2018-07-07T01:24:21.095Z,14.30
2018-07-07T01:29:23.711Z,14.20
2018-07-07T01:34:26.326Z,14.10
2018-07-07T01:39:29.626Z,14.10
2018-07-07T01:44:32.298Z,14.10
2018-07-07T01:49:34.939Z,14.10
2018-07-07T01:54:37.591Z,14.00
2018-07-07T01:59:40.217Z,14.00
2018-07-07T02:04:42.822Z,13.90
2018-07-07T02:09:45.455Z,13.90
2018-07-07T02:14:48.143Z,13.90
2018-07-07T02:19:50.791Z,14.00
2018-07-07T02:24:53.562Z,13.90
2018-07-07T02:29:56.207Z,13.90
2018-07-07T02:34:58.828Z,13.80
2018-07-07T02:40:02.455Z,13.80
2018-07-07T02:45:05.124Z,13.70
2018-07-07T02:50:07.826Z,13.70
2018-07-07T02:55:10.576Z,13.60
2018-07-07T03:00:13.199Z,13.60
2018-07-07T03:05:15.879Z,13.60
2018-07-07T03:10:18.571Z,13.50
2018-07-07T03:15:22.471Z,13.40
2018-07-07T03:20:25.091Z,13.20
2018-07-07T03:25:27.728Z,13.10
2018-07-07T03:30:30.396Z,13.00
2018-07-07T03:35:33.038Z,13.00
2018-07-07T03:40:35.671Z,12.90
2018-07-07T03:45:38.263Z,12.90
2018-07-07T03:50:41.007Z,12.90
2018-07-07T03:55:43.631Z,12.90
2018-07-07T04:00:46.239Z,12.90
2018-07-07T04:05:48.857Z,8.70
2018-07-07T04:15:55.993Z,13.20
2018-07-07T04:20:59.063Z,13.30
2018-07-07T04:26:01.857Z,13.30
2018-07-07T04:31:04.607Z,13.40
2018-07-07T04:36:07.250Z,13.50
2018-07-07T04:41:09.874Z,13.70
2018-07-07T04:46:12.706Z,13.90
2018-07-07T04:51:15.391Z,14.00
2018-07-07T04:56:18.050Z,14.20
2018-07-07T05:01:20.679Z,14.40
2018-07-07T05:11:26.513Z,14.90
2018-07-07T05:16:29.233Z,15.20
2018-07-07T05:21:31.911Z,15.60
2018-07-07T05:26:34.521Z,15.80
2018-07-07T05:31:37.146Z,16.00
2018-07-07T05:36:39.940Z,16.00
2018-07-07T05:41:42.557Z,16.00
2018-07-07T05:46:45.195Z,16.20
2018-07-07T05:51:47.852Z,16.30
2018-07-07T05:56:50.624Z,16.40
2018-07-07T06:01:53.495Z,16.50
2018-07-07T06:06:56.321Z,16.60
2018-07-07T06:11:59.027Z,16.60
2018-07-07T06:17:02.524Z,16.80
2018-07-07T06:22:05.209Z,16.90
2018-07-07T06:27:07.886Z,17.10
2018-07-07T06:32:10.602Z,17.30
2018-07-07T06:37:13.292Z,17.50
2018-07-07T06:42:15.890Z,17.90
2018-07-07T06:47:18.539Z,18.10
2018-07-07T06:52:21.148Z,18.20
2018-07-07T06:57:24.318Z,18.40
2018-07-07T07:02:27.021Z,18.70
2018-07-07T07:07:29.805Z,18.90
2018-07-07T07:12:32.594Z,19.10
2018-07-07T07:17:35.255Z,19.30
2018-07-07T07:22:37.914Z,19.50
2018-07-07T07:27:40.586Z,19.80
2018-07-07T07:32:43.239Z,20.30
2018-07-07T07:37:45.907Z,20.50
2018-07-07T07:42:48.550Z,20.60
2018-07-07T07:47:51.203Z,20.90
2018-07-07T07:52:53.884Z,20.90
2018-07-07T07:57:56.675Z,21.00
2018-07-07T08:02:59.348Z,21.30
2018-07-07T08:08:02.046Z,21.70
2018-07-07T08:13:05.281Z,22.10
2018-07-07T08:18:07.917Z,22.20
2018-07-07T08:23:10.639Z,22.40
2018-07-07T08:28:13.962Z,22.80
2018-07-07T08:33:16.607Z,23.00
2018-07-07T08:43:21.832Z,23.20
2018-07-07T08:48:24.615Z,23.40
2018-07-07T08:53:27.260Z,23.10
2018-07-07T08:58:31.314Z,23.50
2018-07-07T09:03:34.105Z,23.70
2018-07-07T09:13:39.343Z,23.80
2018-07-07T09:18:42.041Z,24.30
2018-07-07T09:23:44.720Z,24.60
2018-07-07T09:28:48.107Z,24.50
2018-07-07T09:33:50.759Z,24.90
2018-07-07T09:38:53.502Z,25.60
2018-07-07T09:43:56.150Z,25.10
2018-07-07T09:48:58.795Z,26.30
2018-07-07T09:54:01.449Z,26.10
2018-07-07T09:59:04.167Z,26.60
2018-07-07T10:04:07.203Z,27.20
2018-07-07T10:09:09.827Z,27.60
2018-07-07T10:14:12.431Z,27.40
2018-07-07T10:19:15.055Z,28.10
2018-07-07T10:24:17.698Z,27.60
2018-07-07T10:29:20.354Z,26.60
2018-07-07T10:34:22.998Z,26.10
2018-07-07T10:39:25.738Z,25.70
2018-07-07T10:44:28.443Z,25.60
2018-07-07T10:49:31.217Z,26.30
2018-07-07T10:54:33.831Z,28.00
2018-07-07T10:59:36.579Z,29.50
2018-07-07T11:04:39.250Z,29.30
2018-07-07T11:09:41.901Z,30.00
2018-07-07T11:14:44.498Z,30.80
2018-07-07T11:19:47.919Z,31.50
2018-07-07T11:24:50.574Z,32.40
2018-07-07T11:29:53.282Z,33.20
2018-07-07T11:34:56.021Z,33.10
2018-07-07T11:39:58.782Z,32.50
2018-07-07T11:45:01.463Z,31.50
2018-07-07T11:50:04.636Z,30.70
2018-07-07T11:55:07.326Z,32.60
2018-07-07T12:00:10.025Z,33.10
2018-07-07T12:05:12.782Z,32.40
2018-07-07T12:10:15.412Z,33.30
2018-07-07T12:15:18.131Z,34.30
2018-07-07T12:20:20.784Z,34.00
2018-07-07T12:25:23.569Z,33.70
2018-07-07T12:30:26.225Z,32.40
2018-07-07T12:40:31.745Z,32.20
2018-07-07T12:45:35.277Z,31.20
2018-07-07T12:50:40.627Z,29.70
2018-07-07T12:55:43.388Z,32.20
2018-07-07T13:05:48.573Z,34.20
2018-07-07T13:10:51.250Z,34.80
2018-07-07T13:15:54.058Z,37.00
2018-07-07T13:20:58.320Z,37.40
2018-07-07T13:26:01.382Z,37.90
2018-07-07T13:31:04.041Z,34.80
2018-07-07T13:36:06.662Z,33.50
2018-07-07T13:41:10.080Z,36.70
2018-07-07T13:46:12.703Z,38.70
2018-07-07T13:56:17.999Z,35.00
2018-07-07T14:01:20.628Z,31.70
2018-07-07T14:06:23.298Z,33.10
2018-07-07T14:11:25.914Z,34.10
2018-07-07T14:16:28.622Z,35.60
2018-07-07T14:21:31.472Z,33.50
2018-07-07T14:26:34.990Z,31.60
2018-07-07T14:31:37.607Z,30.10
2018-07-07T14:41:42.895Z,28.70
2018-07-07T14:46:45.463Z,32.80
2018-07-07T14:51:48.115Z,35.70
2018-07-07T14:56:50.705Z,38.40
2018-07-07T15:01:53.388Z,39.50
2018-07-07T15:06:56.354Z,39.30
2018-07-07T15:12:01.912Z,36.90
2018-07-07T15:17:04.611Z,36.80
2018-07-07T15:22:07.262Z,38.00
2018-07-07T15:27:09.914Z,38.60
2018-07-07T15:32:12.560Z,38.00
2018-07-07T15:37:15.265Z,36.80
2018-07-07T15:42:17.970Z,38.20
2018-07-07T15:47:20.612Z,40.00
2018-07-07T15:57:25.811Z,38.60
2018-07-07T16:02:28.426Z,38.40
2018-07-07T16:07:31.054Z,38.20
2018-07-07T16:12:33.684Z,38.10
2018-07-07T16:17:36.335Z,38.00
2018-07-07T16:22:38.962Z,37.70
2018-07-07T16:27:41.556Z,36.90
2018-07-07T16:32:44.226Z,34.80
2018-07-07T16:37:46.933Z,34.30
2018-07-07T16:42:50.066Z,34.00
2018-07-07T16:47:52.779Z,35.10
2018-07-07T16:52:56.544Z,35.10
2018-07-07T16:57:59.543Z,35.10
2018-07-07T17:03:02.274Z,35.40
2018-07-07T17:08:05.046Z,35.90
2018-07-07T17:13:07.878Z,35.40
2018-07-07T17:23:13.475Z,34.50
2018-07-07T17:28:16.155Z,34.00
2018-07-07T17:33:20.321Z,33.40
2018-07-07T17:38:23.063Z,31.70
2018-07-07T17:43:26.079Z,30.00
2018-07-07T17:48:28.841Z,29.00
2018-07-07T17:53:31.642Z,28.20
2018-07-07T17:58:34.356Z,27.60
2018-07-07T18:03:37.061Z,27.00
2018-07-07T18:08:40.174Z,26.10
2018-07-07T18:13:42.875Z,25.20
2018-07-07T18:18:45.518Z,24.90
2018-07-07T18:23:48.211Z,24.70
2018-07-07T18:28:50.925Z,24.80
2018-07-07T18:33:53.572Z,24.70
2018-07-07T18:38:56.250Z,24.50
2018-07-07T18:43:59.051Z,24.20
2018-07-07T18:49:01.679Z,23.40
2018-07-07T18:54:06.426Z,22.70
2018-07-07T18:59:09.051Z,22.20
2018-07-07T19:04:11.663Z,21.80
2018-07-07T19:09:14.406Z,21.40
2018-07-07T19:14:17.757Z,21.00
2018-07-07T19:19:20.407Z,20.70
2018-07-07T19:24:28.645Z,20.40
2018-07-07T19:29:31.730Z,20.20
2018-07-07T19:34:40.090Z,19.90
2018-07-07T19:39:43.614Z,19.70
2018-07-07T19:49:48.788Z,19.40
2018-07-07T19:54:51.478Z,19.30
2018-07-07T19:59:54.131Z,19.10
2018-07-07T20:04:56.899Z,18.90
2018-07-07T20:09:59.537Z,18.80
2018-07-07T20:15:02.267Z,18.70
2018-07-07T20:20:41.799Z,18.60
2018-07-07T20:25:50.130Z,18.50
2018-07-07T20:30:56.833Z,18.40
2018-07-07T20:35:59.562Z,18.30
2018-07-07T20:41:02.200Z,18.20
2018-07-07T20:46:04.913Z,18.10
2018-07-07T20:51:07.671Z,18.10
2018-07-07T20:56:10.350Z,18.00
2018-07-07T21:01:12.992Z,17.90
2018-07-07T21:06:15.750Z,17.80
2018-07-07T21:16:20.982Z,17.80
2018-07-07T21:21:23.912Z,17.80
2018-07-07T21:26:26.780Z,17.80
2018-07-07T21:31:29.460Z,17.80
2018-07-07T21:41:34.643Z,17.60
2018-07-07T21:46:37.385Z,17.70
2018-07-07T21:51:40.073Z,17.60
2018-07-07T21:56:42.827Z,17.50
2018-07-07T22:01:58.778Z,17.50
2018-07-07T22:07:08.214Z,17.50
2018-07-07T22:12:10.891Z,17.50
2018-07-07T22:17:13.540Z,17.40
2018-07-07T22:22:16.302Z,17.20
2018-07-07T22:27:18.939Z,17.10
2018-07-07T22:32:22.778Z,17.30
2018-07-07T22:37:25.412Z,17.10
2018-07-07T22:42:28.157Z,17.10
2018-07-07T22:47:30.961Z,17.10
2018-07-07T22:52:33.630Z,17.00
2018-07-07T22:57:36.335Z,17.00
2018-07-07T23:02:38.975Z,17.00
2018-07-07T23:07:41.739Z,16.90
2018-07-07T23:12:44.354Z,16.80
2018-07-07T23:17:46.983Z,16.60
2018-07-07T23:22:51.049Z,16.50
2018-07-07T23:27:53.781Z,16.50
2018-07-07T23:32:56.740Z,16.40
2018-07-07T23:37:59.415Z,16.30
2018-07-07T23:43:02.046Z,16.20
2018-07-07T23:48:05.031Z,16.20
2018-07-07T23:53:07.731Z,16.20
2018-07-07T23:58:10.494Z,16.20
